Time;durP1;ratioP1;P1;durP2;ratioP2;P2;SDS_P1;SDS_P2;PMS_P1;PMS_P2;Temp;Humidity;BMP_temperature;BMP_pressure;BME280_temperature;BME280_humidity;BME280_pressure;Samples;Min_cycle;Max_cycle;Signal;HPM_P1;HPM_P2
2021/06/09 00:00:50;;;;;;;0.73;0.73;;;18.20;58.90;;;;;;3541520;40;20048;-67
2021/06/09 00:03:16;;;;;;;0.77;0.77;;;18.10;58.60;;;;;;3543001;40;20018;-66
2021/06/09 00:05:42;;;;;;;0.95;0.80;;;18.10;58.80;;;;;;3544120;40;20027;-67
2021/06/09 00:08:08;;;;;;;1.02;0.80;;;18.00;58.50;;;;;;3552096;40;20034;-67
2021/06/09 00:10:34;;;;;;;1.73;1.00;;;18.10;58.80;;;;;;3553095;40;20034;-66
2021/06/09 00:13:00;;;;;;;1.05;0.75;;;18.00;58.70;;;;;;3547948;40;20027;-66
2021/06/09 00:15:27;;;;;;;0.70;0.70;;;18.00;58.90;;;;;;3548532;40;20037;-66
2021/06/09 00:17:53;;;;;;;1.00;0.77;;;18.00;59.30;;;;;;3537310;40;20074;-66
2021/06/09 00:20:22;;;;;;;0.88;0.88;;;18.00;59.60;;;;;;3540278;40;20124;-66
2021/06/09 00:22:48;;;;;;;0.95;0.85;;;18.10;59.40;;;;;;3547646;40;20039;-66
2021/06/09 00:25:18;;;;;;;0.73;0.70;;;18.10;59.10;;;;;;3546310;40;20048;-67
2021/06/09 00:27:54;;;;;;;2.08;0.70;;;18.10;59.50;;;;;;3545135;40;20030;-65
2021/06/09 00:30:33;;;;;;;1.92;1.02;;;18.00;58.40;;;;;;3546636;40;20034;-66
2021/06/09 00:33:03;;;;;;;1.50;0.85;;;18.10;59.30;;;;;;3541682;40;20436;-65
2021/06/09 00:35:29;;;;;;;2.10;0.88;;;18.10;58.90;;;;;;3548354;40;20042;-66
2021/06/09 00:37:56;;;;;;;1.17;0.68;;;18.10;58.70;;;;;;3540709;40;20034;-65
2021/06/09 00:40:21;;;;;;;1.50;0.60;;;18.10;58.50;;;;;;3541958;40;20061;-66
2021/06/09 00:43:13;;;;;;;3.17;0.90;;;18.10;58.30;;;;;;3543882;40;20030;-67
2021/06/09 00:45:42;;;;;;;0.85;0.80;;;18.10;58.40;;;;;;3544391;40;20035;-66
2021/06/09 00:48:08;;;;;;;0.70;0.70;;;18.10;58.60;;;;;;3546344;40;20041;-67
2021/06/09 00:50:34;;;;;;;0.98;0.75;;;18.10;58.30;;;;;;3547322;40;20036;-66
2021/06/09 00:55:45;;;;;;;1.33;0.98;;;18.10;59.00;;;;;;3540172;40;20034;-66
2021/06/09 00:58:12;;;;;;;1.00;0.73;;;18.10;58.50;;;;;;3541730;40;20061;-67
2021/06/09 01:00:38;;;;;;;0.80;0.65;;;18.10;58.80;;;;;;3542674;40;20353;-67
2021/06/09 01:03:04;;;;;;;0.88;0.88;;;18.00;58.70;;;;;;3545328;40;20129;-66
2021/06/09 01:05:31;;;;;;;0.70;0.70;;;18.00;59.00;;;;;;3544658;40;20055;-67
2021/06/09 01:08:03;;;;;;;1.58;0.95;;;18.00;59.40;;;;;;3543287;40;20667;-66
2021/06/09 01:10:29;;;;;;;2.25;0.95;;;17.90;59.60;;;;;;3549621;40;20035;-67
2021/06/09 01:12:57;;;;;;;1.08;0.80;;;17.90;59.10;;;;;;3542501;40;20033;-66
2021/06/09 01:15:27;;;;;;;0.65;0.60;;;17.80;59.70;;;;;;3543459;40;20506;-66
2021/06/09 01:17:53;;;;;;;1.10;0.88;;;17.80;60.50;;;;;;3543639;40;20082;-66
2021/06/09 01:20:20;;;;;;;1.17;0.80;;;17.70;60.40;;;;;;3545092;40;20444;-66
2021/06/09 01:22:46;;;;;;;1.45;1.05;;;17.60;60.00;;;;;;3546198;40;20023;-66
2021/06/09 01:25:12;;;;;;;1.02;0.90;;;17.60;60.20;;;;;;3544910;40;20023;-66
2021/06/09 01:27:39;;;;;;;1.10;0.88;;;17.60;61.00;;;;;;3544866;40;20046;-66
2021/06/09 01:30:08;;;;;;;0.80;0.80;;;17.60;61.30;;;;;;3549801;40;20043;-66
2021/06/09 01:32:34;;;;;;;1.10;1.00;;;17.60;61.90;;;;;;3542129;40;20317;-66
2021/06/09 01:35:01;;;;;;;1.08;0.88;;;17.50;62.60;;;;;;3543367;40;20037;-66
2021/06/09 01:37:27;;;;;;;1.00;0.88;;;17.40;62.90;;;;;;3544493;40;20041;-66
2021/06/09 01:39:59;;;;;;;3.33;1.00;;;17.40;63.60;;;;;;3545761;40;20147;-66
2021/06/09 01:42:30;;;;;;;1.10;0.88;;;17.30;63.80;;;;;;3547011;40;20385;-66
2021/06/09 01:44:56;;;;;;;1.20;0.90;;;17.30;64.10;;;;;;3548710;40;20038;-66
2021/06/09 01:47:23;;;;;;;1.85;0.70;;;17.30;63.70;;;;;;3549044;40;20029;-66
2021/06/09 01:49:49;;;;;;;2.28;1.05;;;17.30;63.50;;;;;;3550946;40;20034;-66
2021/06/09 01:52:17;;;;;;;1.15;0.73;;;17.20;63.60;;;;;;3550150;40;20037;-66
2021/06/09 01:54:43;;;;;;;1.00;0.90;;;17.20;63.50;;;;;;3549204;40;20034;-67
2021/06/09 01:57:11;;;;;;;1.10;1.00;;;17.20;63.70;;;;;;3548406;40;20034;-66
2021/06/09 01:59:37;;;;;;;1.27;1.17;;;17.10;63.80;;;;;;3546073;40;20073;-66
2021/06/09 02:02:04;;;;;;;1.25;0.93;;;17.00;64.00;;;;;;3547661;40;20312;-67
2021/06/09 02:04:29;;;;;;;1.05;0.77;;;17.00;64.00;;;;;;3548743;40;20034;-66
2021/06/09 02:06:55;;;;;;;1.10;1.00;;;16.90;64.60;;;;;;3540475;40;20081;-66
2021/06/09 02:09:22;;;;;;;3.00;0.90;;;16.90;64.60;;;;;;3542781;40;20045;-67
2021/06/09 02:11:49;;;;;;;0.68;0.60;;;16.80;64.60;;;;;;3545285;40;20784;-66
2021/06/09 02:14:16;;;;;;;0.80;0.80;;;16.80;65.00;;;;;;3544949;40;20049;-66
2021/06/09 02:16:44;;;;;;;1.55;1.05;;;16.70;65.20;;;;;;3550522;40;20039;-66
2021/06/09 02:19:12;;;;;;;2.90;1.10;;;16.70;65.40;;;;;;3545191;40;20066;-68
2021/06/09 02:21:40;;;;;;;2.42;0.93;;;16.70;65.80;;;;;;3548090;40;20815;-66
2021/06/09 02:24:07;;;;;;;1.30;1.13;;;16.60;66.00;;;;;;3547390;40;20109;-66
2021/06/09 02:26:34;;;;;;;1.25;1.00;;;16.60;66.10;;;;;;3549751;40;20116;-66
2021/06/09 02:29:01;;;;;;;1.10;1.00;;;16.60;66.70;;;;;;3548883;40;20439;-66
2021/06/09 02:31:27;;;;;;;1.08;1.00;;;16.60;67.20;;;;;;3548800;40;20092;-66
2021/06/09 02:33:54;;;;;;;1.13;1.02;;;16.50;67.30;;;;;;3544472;40;20412;-67
2021/06/09 02:36:20;;;;;;;1.38;0.98;;;16.50;67.80;;;;;;3545646;40;20035;-66
2021/06/09 02:38:47;;;;;;;1.30;0.90;;;16.50;67.30;;;;;;3547135;40;20439;-66
2021/06/09 02:41:12;;;;;;;2.90;1.30;;;16.50;67.60;;;;;;3548107;40;20116;-66
2021/06/09 02:43:38;;;;;;;1.17;1.08;;;16.50;67.50;;;;;;3549144;40;20564;-66
2021/06/09 02:46:16;;;;;;;2.92;1.23;;;16.50;67.90;;;;;;3550613;40;20084;-66
2021/06/09 02:48:46;;;;;;;3.42;1.20;;;16.40;68.20;;;;;;3549503;40;20041;-66
2021/06/09 02:51:18;;;;;;;2.20;1.20;;;16.40;68.50;;;;;;3541550;40;20036;-66
2021/06/09 02:53:52;;;;;;;1.05;0.98;;;16.40;68.80;;;;;;3544483;40;20043;-66
2021/06/09 02:56:48;;;;;;;1.45;1.10;;;16.40;68.80;;;;;;3546329;40;20019;-66
2021/06/09 02:59:33;;;;;;;1.70;1.40;;;16.40;68.40;;;;;;3548296;40;20506;-66
2021/06/09 03:02:27;;;;;;;4.53;1.08;;;16.50;68.10;;;;;;3542239;40;20067;-66
2021/06/09 03:04:56;;;;;;;1.05;1.00;;;16.40;68.90;;;;;;3543496;40;20042;-66
2021/06/09 03:07:30;;;;;;;2.65;1.08;;;16.40;68.40;;;;;;3543447;40;20136;-66
2021/06/09 03:10:23;;;;;;;2.42;1.20;;;16.40;68.00;;;;;;3543820;40;20086;-65
2021/06/09 03:13:02;;;;;;;1.42;1.10;;;16.30;67.90;;;;;;3546773;40;20029;-67
2021/06/09 03:15:41;;;;;;;1.45;1.33;;;16.20;67.90;;;;;;3545147;40;20026;-65
2021/06/09 03:18:26;;;;;;;2.03;1.27;;;16.10;68.00;;;;;;3542388;40;20351;-66
2021/06/09 03:21:00;;;;;;;2.20;1.27;;;16.00;68.40;;;;;;3541047;40;20038;-66
2021/06/09 03:23:44;;;;;;;1.30;1.08;;;15.90;68.60;;;;;;3543748;40;20026;-66
2021/06/09 03:26:13;;;;;;;4.30;1.38;;;15.90;68.70;;;;;;3547957;40;20144;-66
2021/06/09 03:28:49;;;;;;;3.65;1.45;;;15.80;69.00;;;;;;3550725;40;20433;-66
2021/06/09 03:31:21;;;;;;;1.33;1.20;;;15.80;69.70;;;;;;3546661;40;20066;-66
2021/06/09 03:33:51;;;;;;;1.45;1.35;;;15.70;70.10;;;;;;3548022;40;20316;-67
2021/06/09 03:36:25;;;;;;;1.70;1.50;;;15.70;70.40;;;;;;3546841;40;20050;-67
2021/06/09 03:39:04;;;;;;;3.53;1.60;;;15.70;71.00;;;;;;3543864;40;20034;-66
2021/06/09 03:41:43;;;;;;;1.35;1.20;;;15.60;71.30;;;;;;3542774;40;20042;-66
2021/06/09 03:44:11;;;;;;;1.48;1.38;;;15.70;71.70;;;;;;3543114;40;20325;-66
2021/06/09 03:46:38;;;;;;;1.23;1.13;;;15.70;72.30;;;;;;3548648;40;20041;-66
2021/06/09 03:49:13;;;;;;;3.35;1.13;;;15.60;72.60;;;;;;3546941;40;20312;-66
2021/06/09 03:51:40;;;;;;;1.40;1.30;;;15.70;73.10;;;;;;3545267;40;20037;-65
2021/06/09 03:54:07;;;;;;;1.27;1.17;;;15.70;72.80;;;;;;3547391;40;20593;-65
2021/06/09 03:56:33;;;;;;;2.40;1.77;;;15.70;72.80;;;;;;3540514;40;20031;-67
2021/06/09 03:59:01;;;;;;;2.10;1.67;;;15.80;73.10;;;;;;3545327;40;20034;-67
2021/06/09 04:01:31;;;;;;;1.67;1.38;;;15.80;73.20;;;;;;3545748;40;20029;-67
2021/06/09 04:03:59;;;;;;;1.70;1.25;;;15.80;73.10;;;;;;3544805;40;20093;-67
2021/06/09 04:06:26;;;;;;;2.78;1.50;;;15.80;72.80;;;;;;3548149;40;20021;-66
2021/06/09 04:08:54;;;;;;;1.40;1.30;;;15.80;72.90;;;;;;3545797;40;20119;-67
2021/06/09 04:11:22;;;;;;;2.38;1.45;;;15.80;73.40;;;;;;3544310;40;20059;-67
2021/06/09 04:13:49;;;;;;;1.40;1.30;;;15.80;73.60;;;;;;3549704;40;20034;-66
2021/06/09 04:16:16;;;;;;;2.35;1.35;;;15.80;73.60;;;;;;3549138;40;20576;-69
2021/06/09 04:18:45;;;;;;;1.40;1.30;;;15.80;73.60;;;;;;3547953;40;20034;-66
2021/06/09 04:21:11;;;;;;;2.17;1.35;;;15.70;73.80;;;;;;3548097;40;20042;-67
2021/06/09 04:23:38;;;;;;;1.42;1.33;;;15.80;74.10;;;;;;3546915;40;20033;-72
2021/06/09 04:26:05;;;;;;;1.52;1.40;;;15.70;74.50;;;;;;3549294;40;20710;-68
2021/06/09 04:28:32;;;;;;;2.88;1.80;;;15.80;74.80;;;;;;3546872;40;20045;-67
2021/06/09 04:30:58;;;;;;;1.58;1.48;;;15.90;74.90;;;;;;3546935;40;20608;-68
2021/06/09 04:33:31;;;;;;;3.15;1.48;;;15.90;74.90;;;;;;3544105;40;20034;-68
2021/06/09 04:35:58;;;;;;;2.47;1.70;;;15.90;75.30;;;;;;3550411;40;20072;-67
2021/06/09 04:38:24;;;;;;;2.28;1.60;;;16.00;75.50;;;;;;3549942;40;20423;-67
2021/06/09 04:40:51;;;;;;;4.30;1.45;;;16.00;75.70;;;;;;3547689;40;20034;-68
2021/06/09 04:43:20;;;;;;;1.60;1.50;;;16.10;75.60;;;;;;3547828;40;20152;-68
2021/06/09 04:45:46;;;;;;;8.75;1.75;;;16.20;75.60;;;;;;3552367;40;20038;-67
2021/06/09 04:48:15;;;;;;;1.60;1.50;;;16.20;75.80;;;;;;3547435;40;20042;-67
2021/06/09 04:50:43;;;;;;;1.98;1.77;;;16.30;76.00;;;;;;3542535;40;20132;-68
2021/06/09 04:53:10;;;;;;;2.17;1.48;;;16.30;75.90;;;;;;3543206;40;20030;-67
2021/06/09 04:55:55;;;;;;;2.97;2.00;;;16.40;75.90;;;;;;3540480;40;20022;-66
2021/06/09 04:58:24;;;;;;;4.70;1.90;;;16.50;75.80;;;;;;3546589;40;20401;-67
2021/06/09 05:00:50;;;;;;;2.05;1.63;;;16.50;75.10;;;;;;3547791;40;20042;-66
2021/06/09 05:03:16;;;;;;;4.85;1.88;;;16.60;74.90;;;;;;3544583;40;20667;-67
2021/06/09 05:05:42;;;;;;;3.20;1.88;;;16.70;74.70;;;;;;3547590;40;20507;-67
2021/06/09 05:08:08;;;;;;;3.13;1.45;;;16.80;74.40;;;;;;3547892;40;20041;-67
2021/06/09 05:10:37;;;;;;;1.83;1.50;;;16.80;74.00;;;;;;3547775;40;20058;-67
2021/06/09 05:13:05;;;;;;;1.90;1.80;;;16.90;73.70;;;;;;3550410;40;20569;-69
2021/06/09 05:15:36;;;;;;;2.70;1.75;;;17.00;73.70;;;;;;3549192;40;20029;-67
2021/06/09 05:18:09;;;;;;;1.80;1.50;;;17.10;73.40;;;;;;3545407;40;20046;-67
2021/06/09 05:20:38;;;;;;;2.72;1.90;;;17.30;73.50;;;;;;3543885;40;20042;-67
2021/06/09 05:23:15;;;;;;;4.65;1.60;;;17.60;72.60;;;;;;3546318;40;20038;-67
2021/06/09 05:25:43;;;;;;;1.50;1.40;;;17.90;71.90;;;;;;3542411;40;20069;-67
2021/06/09 05:28:12;;;;;;;1.70;1.60;;;18.10;71.10;;;;;;3548362;40;20078;-67
2021/06/09 05:30:39;;;;;;;1.73;1.50;;;18.20;70.60;;;;;;3540320;40;20050;-66
2021/06/09 05:33:06;;;;;;;1.83;1.42;;;18.30;70.50;;;;;;3540945;40;20073;-68
2021/06/09 05:35:32;;;;;;;2.05;1.60;;;18.40;70.40;;;;;;3543850;40;20038;-67
2021/06/09 05:37:59;;;;;;;2.50;1.50;;;18.50;70.30;;;;;;3547374;40;20034;-67
2021/06/09 05:40:25;;;;;;;2.00;1.58;;;18.50;70.10;;;;;;3544112;40;20022;-68
2021/06/09 05:42:51;;;;;;;2.05;1.33;;;18.60;70.30;;;;;;3547699;40;20034;-67
2021/06/09 05:45:31;;;;;;;2.38;1.23;;;18.70;70.20;;;;;;3544801;40;20056;-68
2021/06/09 05:47:57;;;;;;;1.42;1.33;;;18.80;70.20;;;;;;3544412;40;20713;-67
2021/06/09 05:50:26;;;;;;;1.27;1.17;;;18.90;69.00;;;;;;3546308;40;20088;-67
2021/06/09 05:52:57;;;;;;;1.40;1.30;;;19.00;68.60;;;;;;3546453;40;20054;-67
2021/06/09 05:55:25;;;;;;;1.77;1.40;;;19.10;68.50;;;;;;3549922;40;20117;-68
2021/06/09 05:57:51;;;;;;;1.25;1.15;;;19.20;66.60;;;;;;3547131;40;20030;-68
2021/06/09 06:00:21;;;;;;;1.48;1.30;;;19.30;67.20;;;;;;3547846;40;20041;-68
2021/06/09 06:02:48;;;;;;;1.48;1.38;;;19.50;66.00;;;;;;3547813;40;20026;-67
2021/06/09 06:05:15;;;;;;;2.17;1.25;;;19.60;66.30;;;;;;3547842;40;20053;-68
2021/06/09 06:07:41;;;;;;;1.95;1.20;;;19.70;66.70;;;;;;3550696;40;20338;-67
2021/06/09 06:10:08;;;;;;;1.33;1.23;;;20.00;66.60;;;;;;3546409;40;20050;-68
2021/06/09 06:12:35;;;;;;;2.85;1.00;;;20.30;65.30;;;;;;3548211;40;20744;-67
2021/06/09 06:15:01;;;;;;;1.42;1.27;;;20.50;61.50;;;;;;3545962;40;20050;-69
2021/06/09 06:17:27;;;;;;;1.45;1.10;;;20.60;59.70;;;;;;3547378;40;20274;-69
2021/06/09 06:19:53;;;;;;;2.08;1.00;;;20.70;57.90;;;;;;3545097;40;20030;-69
2021/06/09 06:22:19;;;;;;;1.48;1.10;;;20.80;57.30;;;;;;3546077;40;20057;-69
2021/06/09 06:24:50;;;;;;;2.88;1.23;;;20.90;56.80;;;;;;3543703;40;20331;-69
2021/06/09 06:27:18;;;;;;;1.42;1.25;;;20.90;57.20;;;;;;3546832;40;20074;-68
2021/06/09 06:29:45;;;;;;;2.45;1.30;;;21.00;56.30;;;;;;3544591;40;20026;-69
2021/06/09 06:32:14;;;;;;;2.20;1.27;;;21.10;55.90;;;;;;3544264;40;20265;-68
2021/06/09 06:34:59;;;;;;;1.20;1.05;;;21.20;55.60;;;;;;3547791;40;20387;-69
2021/06/09 06:37:27;;;;;;;2.35;1.33;;;21.30;54.60;;;;;;3545204;40;20038;-69
2021/06/09 06:39:52;;;;;;;1.83;1.33;;;21.40;53.80;;;;;;3547455;40;20043;-67
2021/06/09 06:42:19;;;;;;;1.10;1.00;;;21.50;53.40;;;;;;3546224;40;20151;-70
2021/06/09 06:44:45;;;;;;;2.45;1.10;;;21.60;53.50;;;;;;3553021;40;20026;-70
2021/06/09 06:47:14;;;;;;;5.00;2.60;;;21.70;53.30;;;;;;3548407;40;20030;-69
2021/06/09 06:49:43;;;;;;;6.15;1.90;;;21.70;53.20;;;;;;3542184;40;20037;-70
2021/06/09 06:52:09;;;;;;;1.92;1.52;;;21.80;52.70;;;;;;3544849;40;20331;-70
2021/06/09 06:54:34;;;;;;;1.63;1.20;;;21.80;52.10;;;;;;3546035;40;20045;-70
2021/06/09 06:57:01;;;;;;;2.47;1.75;;;21.90;51.90;;;;;;3548484;40;20030;-69
2021/06/09 06:59:27;;;;;;;5.00;1.88;;;21.90;51.80;;;;;;3548463;40;20033;-70
2021/06/09 07:01:54;;;;;;;1.70;1.60;;;22.00;51.60;;;;;;3545664;40;20128;-69
2021/06/09 07:04:21;;;;;;;1.48;1.38;;;22.10;51.00;;;;;;3542577;40;20550;-69
2021/06/09 07:06:49;;;;;;;1.83;1.30;;;22.10;51.00;;;;;;3543200;40;20026;-70
2021/06/09 07:09:16;;;;;;;2.15;0.98;;;22.10;51.10;;;;;;3543815;40;20050;-69
2021/06/09 07:11:44;;;;;;;4.97;1.17;;;22.20;50.90;;;;;;3545906;40;20034;-69
2021/06/09 07:14:10;;;;;;;4.35;2.20;;;22.30;50.50;;;;;;3544702;40;20105;-69
2021/06/09 07:16:39;;;;;;;4.70;1.60;;;22.30;51.00;;;;;;3546940;40;20038;-69
2021/06/09 07:19:10;;;;;;;1.23;1.00;;;22.30;50.90;;;;;;3542993;40;20062;-70
2021/06/09 07:21:37;;;;;;;1.98;1.17;;;22.40;50.80;;;;;;3539961;40;20098;-69
2021/06/09 07:24:04;;;;;;;2.13;1.45;;;22.50;50.50;;;;;;3545782;40;20042;-69
2021/06/09 07:26:37;;;;;;;3.28;1.23;;;22.60;50.50;;;;;;3544918;40;20044;-69
2021/06/09 07:29:04;;;;;;;3.00;1.25;;;22.80;50.00;;;;;;3545817;40;20395;-68
2021/06/09 07:31:36;;;;;;;1.38;1.02;;;22.90;49.50;;;;;;3545665;40;20045;-68
2021/06/09 07:34:05;;;;;;;1.75;1.15;;;23.00;49.40;;;;;;3545182;40;20045;-66
2021/06/09 07:36:40;;;;;;;2.25;1.20;;;23.10;48.90;;;;;;3541641;40;20050;-68
2021/06/09 07:39:09;;;;;;;1.08;1.00;;;23.30;48.80;;;;;;3549031;40;20037;-69
2021/06/09 07:41:39;;;;;;;3.90;1.40;;;23.30;49.50;;;;;;3541131;40;20030;-70
2021/06/09 07:44:06;;;;;;;2.58;1.15;;;23.30;48.80;;;;;;3549237;40;20490;-69
2021/06/09 07:46:33;;;;;;;0.90;0.90;;;23.40;48.70;;;;;;3543452;40;20562;-69
2021/06/09 07:49:03;;;;;;;3.67;1.85;;;23.40;49.20;;;;;;3552229;40;20742;-69
2021/06/09 07:51:31;;;;;;;3.50;1.20;;;23.40;49.50;;;;;;3554012;40;20026;-69
2021/06/09 07:54:00;;;;;;;1.33;1.17;;;23.40;50.30;;;;;;3547693;40;20037;-68
2021/06/09 07:56:33;;;;;;;3.90;1.23;;;23.40;49.60;;;;;;3543059;40;20022;-67
2021/06/09 07:59:01;;;;;;;2.08;1.40;;;23.50;49.50;;;;;;3543148;40;20078;-68
2021/06/09 08:01:27;;;;;;;4.53;2.25;;;23.50;49.00;;;;;;3548082;40;20042;-69
2021/06/09 08:03:53;;;;;;;4.38;1.60;;;23.50;49.20;;;;;;3547985;40;20318;-69
2021/06/09 08:06:19;;;;;;;1.92;1.23;;;23.50;49.40;;;;;;3546001;40;20023;-68
2021/06/09 08:08:46;;;;;;;2.88;1.50;;;23.50;49.30;;;;;;3545009;40;20042;-68
2021/06/09 08:11:14;;;;;;;2.00;1.30;;;23.60;49.10;;;;;;3546712;40;20029;-68
2021/06/09 08:13:42;;;;;;;1.98;1.10;;;23.60;48.50;;;;;;3545579;40;20034;-68
2021/06/09 08:16:15;;;;;;;2.75;1.45;;;23.70;48.10;;;;;;3541188;40;20060;-68
2021/06/09 08:18:42;;;;;;;1.98;0.93;;;23.80;47.70;;;;;;3539814;40;20034;-72
2021/06/09 08:21:20;;;;;;;1.50;1.27;;;23.70;47.70;;;;;;3541505;40;20117;-68
2021/06/09 08:23:48;;;;;;;2.28;0.90;;;23.70;48.10;;;;;;3543614;40;20485;-70
2021/06/09 08:26:16;;;;;;;2.92;1.13;;;23.70;48.70;;;;;;3543717;40;20051;-68
2021/06/09 08:28:43;;;;;;;1.83;1.00;;;23.80;48.30;;;;;;3547219;40;20435;-70
2021/06/09 08:31:12;;;;;;;3.03;1.60;;;23.90;47.70;;;;;;3553657;40;20026;-68
2021/06/09 08:33:41;;;;;;;1.48;1.15;;;23.90;47.80;;;;;;3550146;40;20423;-69
2021/06/09 08:36:08;;;;;;;1.58;1.00;;;24.00;47.60;;;;;;3549199;40;20838;-69
2021/06/09 08:38:34;;;;;;;3.28;1.73;;;24.10;47.10;;;;;;3541709;40;20715;-69
2021/06/09 08:41:01;;;;;;;1.27;1.17;;;24.20;47.50;;;;;;3543151;40;20044;-69
2021/06/09 08:43:27;;;;;;;2.10;1.10;;;24.30;46.80;;;;;;3545916;40;20048;-69
2021/06/09 08:45:53;;;;;;;4.30;0.98;;;24.40;46.80;;;;;;3552970;40;20617;-69
2021/06/09 08:48:19;;;;;;;3.97;1.67;;;24.40;47.00;;;;;;3547503;40;20044;-70
2021/06/09 08:50:49;;;;;;;2.80;1.30;;;24.50;46.00;;;;;;3548740;40;20485;-70
2021/06/09 08:53:20;;;;;;;0.98;0.75;;;24.60;45.70;;;;;;3548292;40;20045;-69
2021/06/09 08:55:47;;;;;;;1.80;1.30;;;24.60;45.60;;;;;;3548861;40;20022;-69
2021/06/09 08:58:14;;;;;;;0.80;0.80;;;24.70;44.00;;;;;;3548996;40;20053;-70
2021/06/09 09:00:41;;;;;;;1.42;1.10;;;24.70;43.60;;;;;;3544312;40;20041;-69
2021/06/09 09:03:07;;;;;;;1.30;0.90;;;24.80;43.90;;;;;;3548397;40;20028;-69
2021/06/09 09:05:34;;;;;;;0.82;0.60;;;24.80;43.60;;;;;;3548074;40;20038;-70
2021/06/09 09:08:06;;;;;;;0.70;0.70;;;24.90;43.90;;;;;;3541819;40;20041;-70
2021/06/09 09:10:34;;;;;;;0.88;0.70;;;25.00;43.90;;;;;;3542348;40;20324;-70
2021/06/09 09:13:00;;;;;;;5.28;0.80;;;25.10;42.40;;;;;;3549809;40;20491;-70
2021/06/09 09:15:27;;;;;;;0.70;0.70;;;25.10;42.90;;;;;;3549472;40;20042;-70
2021/06/09 09:17:57;;;;;;;1.10;0.60;;;25.10;43.00;;;;;;3544248;40;20034;-70
2021/06/09 09:20:40;;;;;;;2.08;0.80;;;25.10;42.00;;;;;;3545742;40;20053;-69
2021/06/09 09:23:24;;;;;;;0.77;0.60;;;25.10;41.20;;;;;;3546301;40;20558;-70
2021/06/09 09:25:53;;;;;;;1.00;0.73;;;25.10;42.80;;;;;;3542441;40;20049;-70
2021/06/09 09:28:31;;;;;;;3.92;0.70;;;25.20;41.70;;;;;;3544738;40;20404;-68
2021/06/09 09:31:12;;;;;;;2.05;0.77;;;25.30;42.20;;;;;;3546799;40;20066;-72
2021/06/09 09:33:39;;;;;;;2.90;0.80;;;25.30;41.30;;;;;;3542721;40;20031;-70
2021/06/09 09:36:26;;;;;;;1.35;0.90;;;25.30;41.30;;;;;;3551540;40;20031;-70
2021/06/09 09:38:53;;;;;;;1.10;0.90;;;25.30;42.80;;;;;;3544688;40;20038;-70
2021/06/09 09:41:21;;;;;;;2.58;0.80;;;25.30;41.30;;;;;;3547060;40;20118;-66
2021/06/09 09:44:00;;;;;;;0.85;0.85;;;25.30;41.80;;;;;;3548635;40;20038;-66
2021/06/09 09:46:35;;;;;;;0.90;0.70;;;25.40;42.20;;;;;;3550833;40;20039;-66
2021/06/09 09:49:10;;;;;;;2.17;0.98;;;25.50;41.70;;;;;;3541608;40;20132;-70
2021/06/09 09:52:01;;;;;;;3.95;0.85;;;25.70;42.00;;;;;;3543558;40;20522;-69
2021/06/09 09:54:33;;;;;;;1.98;1.05;;;25.70;41.00;;;;;;3539927;40;20444;-70
2021/06/09 09:57:00;;;;;;;1.38;0.90;;;25.70;41.00;;;;;;3547097;40;20045;-70
2021/06/09 09:59:27;;;;;;;3.20;1.95;;;25.70;41.60;;;;;;3548464;40;20401;-71
2021/06/09 10:01:54;;;;;;;1.58;0.82;;;25.80;41.10;;;;;;3545737;40;20427;-69
2021/06/09 10:04:34;;;;;;;0.90;0.70;;;25.80;40.20;;;;;;3545128;40;20090;-70
2021/06/09 10:07:02;;;;;;;7.72;1.25;;;25.80;41.10;;;;;;3540206;40;20054;-70
2021/06/09 10:09:40;;;;;;;3.13;1.50;;;25.80;41.60;;;;;;3557039;40;20029;-71
2021/06/09 10:12:11;;;;;;;0.93;0.90;;;25.90;41.90;;;;;;3544561;40;20030;-69
2021/06/09 10:14:50;;;;;;;1.80;0.80;;;25.90;40.80;;;;;;3545918;40;20033;-72
2021/06/09 10:17:22;;;;;;;1.30;1.17;;;25.90;40.60;;;;;;3549265;40;20023;-76
2021/06/09 10:19:54;;;;;;;2.05;1.05;;;25.90;41.40;;;;;;3547707;40;20041;-70
2021/06/09 10:22:30;;;;;;;0.93;0.90;;;25.90;40.30;;;;;;3544504;40;20035;-71
2021/06/09 10:25:01;;;;;;;1.13;0.55;;;25.90;41.10;;;;;;3542857;40;20035;-69
2021/06/09 10:27:52;;;;;;;1.02;0.70;;;26.10;40.30;;;;;;3548461;40;20047;-69
2021/06/09 10:30:18;;;;;;;2.35;0.95;;;26.20;40.00;;;;;;3547378;40;20115;-70
2021/06/09 10:32:50;;;;;;;0.95;0.73;;;26.20;40.20;;;;;;3554520;40;20030;-69
2021/06/09 10:35:18;;;;;;;1.02;0.90;;;26.30;40.50;;;;;;3554759;40;20053;-69
2021/06/09 10:37:46;;;;;;;2.67;0.80;;;26.40;40.30;;;;;;3546239;40;20038;-69
2021/06/09 10:40:15;;;;;;;2.60;0.90;;;26.40;40.50;;;;;;3544263;40;20133;-69
2021/06/09 10:42:41;;;;;;;1.40;0.90;;;26.60;40.00;;;;;;3547600;40;20556;-68
2021/06/09 10:45:09;;;;;;;1.17;0.70;;;26.60;40.00;;;;;;3550576;40;20034;-69
2021/06/09 10:47:35;;;;;;;1.38;0.85;;;26.70;40.10;;;;;;3544497;40;20845;-69
2021/06/09 10:50:05;;;;;;;2.05;0.90;;;26.70;39.60;;;;;;3544907;40;20671;-69
2021/06/09 10:52:31;;;;;;;1.08;0.80;;;26.90;39.40;;;;;;3545153;40;20036;-69
2021/06/09 10:54:57;;;;;;;2.65;1.00;;;27.30;36.70;;;;;;3546933;40;20035;-69
2021/06/09 10:57:23;;;;;;;2.03;0.77;;;27.40;38.30;;;;;;3545703;40;20029;-69
2021/06/09 10:59:49;;;;;;;2.40;0.60;;;27.30;39.10;;;;;;3542591;40;20068;-69
2021/06/09 11:02:20;;;;;;;1.30;0.85;;;27.20;38.40;;;;;;3541300;40;20022;-69
2021/06/09 11:04:48;;;;;;;0.90;0.80;;;27.10;39.30;;;;;;3541144;40;20160;-68
2021/06/09 11:07:43;;;;;;;1.73;0.90;;;27.00;40.00;;;;;;3542951;40;20035;-69
2021/06/09 11:10:11;;;;;;;0.98;0.88;;;27.00;40.40;;;;;;3544043;40;20046;-69
2021/06/09 11:12:46;;;;;;;1.15;0.82;;;27.00;40.10;;;;;;3545643;40;20404;-70
2021/06/09 11:15:13;;;;;;;1.10;0.68;;;27.00;40.20;;;;;;3544141;40;20036;-71
2021/06/09 11:17:49;;;;;;;3.25;0.88;;;27.10;41.20;;;;;;3546431;40;20042;-73
2021/06/09 11:20:36;;;;;;;1.92;0.98;;;27.10;39.10;;;;;;3541316;40;20551;-70
2021/06/09 11:23:23;;;;;;;4.18;1.10;;;27.00;39.20;;;;;;3548886;40;20049;-71
2021/06/09 11:25:49;;;;;;;1.80;1.00;;;26.90;39.90;;;;;;3541184;40;20057;-70
2021/06/09 11:28:18;;;;;;;1.88;1.00;;;27.00;38.80;;;;;;3542147;40;20030;-72
2021/06/09 11:30:51;;;;;;;1.45;0.93;;;27.10;39.20;;;;;;3544661;40;20042;-72
2021/06/09 11:33:38;;;;;;;1.20;0.80;;;27.00;39.80;;;;;;3547270;40;20052;-72
2021/06/09 11:36:17;;;;;;;2.10;0.90;;;27.10;40.50;;;;;;3547303;40;20095;-71
2021/06/09 11:38:46;;;;;;;0.80;0.77;;;27.20;40.20;;;;;;3540170;40;20042;-71
2021/06/09 11:41:20;;;;;;;0.70;0.70;;;27.30;38.80;;;;;;3545766;40;20041;-72
2021/06/09 11:43:51;;;;;;;1.90;0.77;;;27.40;38.80;;;;;;3547440;40;20035;-71
2021/06/09 11:46:21;;;;;;;4.00;1.00;;;27.40;38.90;;;;;;3546972;40;20049;-73
2021/06/09 11:48:59;;;;;;;1.77;0.90;;;27.40;39.00;;;;;;3545277;40;20503;-72
2021/06/09 11:51:31;;;;;;;0.70;0.70;;;27.50;39.10;;;;;;3544466;40;20124;-72
2021/06/09 11:53:59;;;;;;;3.08;0.80;;;27.60;38.40;;;;;;3547369;40;20033;-72
2021/06/09 11:56:38;;;;;;;3.15;1.00;;;27.40;36.30;;;;;;3543225;40;20172;-72
2021/06/09 11:59:07;;;;;;;1.95;1.40;;;27.20;38.10;;;;;;3539264;40;20412;-72
2021/06/09 12:01:46;;;;;;;1.00;0.70;;;27.20;39.20;;;;;;3545311;40;20030;-72
2021/06/09 12:04:22;;;;;;;1.42;1.02;;;27.30;39.30;;;;;;3547231;40;20041;-72
2021/06/09 12:07:00;;;;;;;0.70;0.70;;;27.30;37.90;;;;;;3543794;40;20027;-72
2021/06/09 12:09:32;;;;;;;4.60;0.82;;;27.30;38.50;;;;;;3544589;40;20034;-72
2021/06/09 12:12:00;;;;;;;2.50;0.80;;;27.30;38.50;;;;;;3543523;40;20056;-72
2021/06/09 12:14:30;;;;;;;2.10;0.82;;;27.30;38.40;;;;;;3549610;40;20034;-72
2021/06/09 12:17:11;;;;;;;0.70;0.63;;;27.50;37.30;;;;;;3549070;40;20078;-72
2021/06/09 12:19:40;;;;;;;1.58;0.80;;;27.60;37.00;;;;;;3548596;40;20349;-72
2021/06/09 12:22:08;;;;;;;1.58;0.95;;;27.60;37.40;;;;;;3546343;40;20026;-72
2021/06/09 12:24:35;;;;;;;1.00;0.70;;;27.70;37.30;;;;;;3547148;40;20026;-72
2021/06/09 12:27:07;;;;;;;1.48;0.60;;;27.70;36.70;;;;;;3547789;40;20508;-72
2021/06/09 12:29:35;;;;;;;3.10;0.70;;;27.60;36.80;;;;;;3544543;40;20026;-72
2021/06/09 12:32:15;;;;;;;2.60;0.70;;;27.60;37.50;;;;;;3548305;40;20494;-72
2021/06/09 12:34:41;;;;;;;0.60;0.50;;;27.60;35.80;;;;;;3549221;40;20054;-73
2021/06/09 12:37:09;;;;;;;1.88;0.80;;;27.50;35.30;;;;;;3539573;40;20121;-72
2021/06/09 12:39:38;;;;;;;0.60;0.60;;;27.20;35.60;;;;;;3541722;40;20132;-72
2021/06/09 12:42:14;;;;;;;0.60;0.55;;;27.20;37.30;;;;;;3545884;40;20033;-72
2021/06/09 12:44:48;;;;;;;1.35;0.60;;;27.10;37.20;;;;;;3544956;40;20054;-72
2021/06/09 12:47:25;;;;;;;0.77;0.77;;;27.30;38.60;;;;;;3552437;40;20071;-72
2021/06/09 12:50:10;;;;;;;1.02;0.57;;;27.30;38.00;;;;;;3541505;40;20030;-73
2021/06/09 12:52:36;;;;;;;1.23;0.68;;;27.50;37.50;;;;;;3549250;40;20049;-72
2021/06/09 12:55:06;;;;;;;0.80;0.70;;;27.50;36.40;;;;;;3546178;40;20042;-72
2021/06/09 12:57:35;;;;;;;1.10;0.60;;;27.60;36.70;;;;;;3539991;40;20101;-72
2021/06/09 13:00:21;;;;;;;2.65;0.60;;;27.70;37.00;;;;;;3542971;40;20489;-72
2021/06/09 13:02:47;;;;;;;0.60;0.60;;;27.80;36.30;;;;;;3551876;40;20041;-72
2021/06/09 13:05:14;;;;;;;0.60;0.60;;;27.80;36.70;;;;;;3546430;40;20026;-73